Time;durP1;ratioP1;P1;durP2;ratioP2;P2;SDS_P1;SDS_P2;PMS_P1;PMS_P2;Temp;Humidity;BMP_temperature;BMP_pressure;BME280_temperature;BME280_humidity;BME280_pressure;Samples;Min_cycle;Max_cycle;Signal;HPM_P1;HPM_P2
2021/04/20 00:00:41;;;;;;;;;;;18.60;39.60;;;;;;505282;236;1225;-44
2021/04/20 00:02:43;;;;;;;;;;;18.70;39.30;;;;;;505867;235;1066;-44
2021/04/20 00:04:44;;;;;;;;;;;18.80;39.20;;;;;;505842;235;1212;-44
2021/04/20 00:06:45;;;;;;;;;;;18.80;39.20;;;;;;505439;235;2203;-44
2021/04/20 00:08:47;;;;;;;;;;;18.80;39.10;;;;;;505508;235;1061;-44
2021/04/20 00:10:48;;;;;;;;;;;18.90;38.90;;;;;;505511;235;1257;-44
2021/04/20 00:12:50;;;;;;;;;;;19.00;38.90;;;;;;505622;234;1188;-44
2021/04/20 00:14:50;;;;;;;;;;;18.90;38.80;;;;;;505305;235;1066;-44
2021/04/20 00:16:52;;;;;;;;;;;18.90;39.00;;;;;;505424;235;1105;-44
2021/04/20 00:18:53;;;;;;;;;;;18.90;38.90;;;;;;505371;235;1021;-44
2021/04/20 00:20:54;;;;;;;;;;;18.90;38.90;;;;;;505762;235;1258;-44
2021/04/20 00:22:56;;;;;;;;;;;18.90;38.90;;;;;;505576;235;1061;-44
2021/04/20 00:24:57;;;;;;;;;;;18.90;38.90;;;;;;505339;235;1124;-44
2021/04/20 00:26:58;;;;;;;;;;;18.80;39.20;;;;;;505290;236;2181;-44
2021/04/20 00:28:59;;;;;;;;;;;18.70;39.30;;;;;;505388;236;1053;-44
2021/04/20 00:31:01;;;;;;;;;;;18.70;39.40;;;;;;505306;234;1216;-44
2021/04/20 00:33:02;;;;;;;;;;;18.60;39.50;;;;;;505494;235;1044;-44
2021/04/20 00:35:03;;;;;;;;;;;18.60;39.60;;;;;;505365;235;1159;-44
2021/04/20 00:37:04;;;;;;;;;;;18.50;39.60;;;;;;505335;235;1025;-44
2021/04/20 00:39:06;;;;;;;;;;;18.50;39.70;;;;;;505752;235;1077;-44
2021/04/20 00:41:07;;;;;;;;;;;18.70;39.50;;;;;;505433;235;1166;-44
2021/04/20 00:43:08;;;;;;;;;;;18.70;39.30;;;;;;505313;235;1064;-44
2021/04/20 00:45:10;;;;;;;;;;;18.70;39.40;;;;;;505348;235;1029;-44
2021/04/20 00:47:11;;;;;;;;;;;18.70;39.30;;;;;;505323;234;2194;-44
2021/04/20 00:49:12;;;;;;;;;;;18.70;39.20;;;;;;505660;235;1203;-44
2021/04/20 00:51:13;;;;;;;;;;;18.70;39.40;;;;;;505810;235;1085;-44
2021/04/20 00:53:15;;;;;;;;;;;18.70;39.30;;;;;;505353;235;1083;-44
2021/04/20 00:55:16;;;;;;;;;;;18.70;39.30;;;;;;505415;236;1216;-44
2021/04/20 00:57:17;;;;;;;;;;;18.60;39.40;;;;;;505308;235;1381;-44
2021/04/20 00:59:19;;;;;;;;;;;18.50;39.60;;;;;;505381;235;1048;-44
2021/04/20 01:01:20;;;;;;;;;;;18.50;39.80;;;;;;505333;234;1140;-44
2021/04/20 01:03:21;;;;;;;;;;;18.40;39.80;;;;;;505571;235;1035;-44
2021/04/20 01:05:22;;;;;;;;;;;18.40;39.80;;;;;;505435;236;1311;-44
2021/04/20 01:07:24;;;;;;;;;;;18.40;39.90;;;;;;505380;235;2177;-44
2021/04/20 01:09:25;;;;;;;;;;;18.40;39.90;;;;;;505534;235;1067;-44
2021/04/20 01:11:26;;;;;;;;;;;18.40;40.00;;;;;;505511;235;1291;-44
2021/04/20 01:13:28;;;;;;;;;;;18.40;40.00;;;;;;505556;235;1077;-44
2021/04/20 01:15:29;;;;;;;;;;;18.30;40.00;;;;;;505793;235;1049;-44
2021/04/20 01:17:30;;;;;;;;;;;18.30;40.00;;;;;;505793;235;1068;-44
2021/04/20 01:19:31;;;;;;;;;;;18.30;40.10;;;;;;505623;234;1077;-44
2021/04/20 01:21:33;;;;;;;;;;;18.30;40.10;;;;;;505502;234;1234;-44
2021/04/20 01:23:34;;;;;;;;;;;18.30;40.00;;;;;;505323;235;1069;-44
2021/04/20 01:25:35;;;;;;;;;;;18.30;40.00;;;;;;505345;235;1243;-44
2021/04/20 01:27:37;;;;;;;;;;;18.40;40.00;;;;;;505329;235;2177;-44
2021/04/20 01:29:38;;;;;;;;;;;18.40;39.90;;;;;;505488;236;1244;-44
2021/04/20 01:31:39;;;;;;;;;;;18.30;40.00;;;;;;505260;234;1351;-44
2021/04/20 01:33:40;;;;;;;;;;;18.30;40.00;;;;;;505356;235;994;-44
2021/04/20 01:35:42;;;;;;;;;;;18.40;40.00;;;;;;505270;235;1321;-44
2021/04/20 01:37:43;;;;;;;;;;;18.30;39.90;;;;;;505229;235;1218;-44
2021/04/20 01:39:44;;;;;;;;;;;18.40;39.90;;;;;;505430;235;1073;-44
2021/04/20 01:41:45;;;;;;;;;;;18.30;39.90;;;;;;505292;234;1208;-44
2021/04/20 01:43:47;;;;;;;;;;;18.30;40.00;;;;;;505311;235;1062;-44
2021/04/20 01:45:48;;;;;;;;;;;18.30;40.10;;;;;;505350;234;1194;-44
2021/04/20 01:47:50;;;;;;;;;;;18.30;40.10;;;;;;505619;235;2181;-44
2021/04/20 01:49:51;;;;;;;;;;;18.30;40.10;;;;;;505468;234;1063;-44
2021/04/20 01:51:52;;;;;;;;;;;18.20;40.00;;;;;;505386;235;1057;-44
2021/04/20 01:53:53;;;;;;;;;;;18.30;40.20;;;;;;505803;235;1074;-44
2021/04/20 01:55:55;;;;;;;;;;;18.30;40.00;;;;;;505510;235;1117;-44
2021/04/20 01:57:56;;;;;;;;;;;18.60;39.60;;;;;;505365;235;1020;-44
2021/04/20 01:59:57;;;;;;;;;;;18.90;38.80;;;;;;505867;235;1049;-44
2021/04/20 02:01:59;;;;;;;;;;;19.20;38.20;;;;;;505295;234;1074;-44
2021/04/20 02:04:00;;;;;;;;;;;19.40;37.70;;;;;;505834;235;1051;-45
2021/04/20 02:06:01;;;;;;;;;;;19.50;37.40;;;;;;505383;235;1032;-44
2021/04/20 02:08:02;;;;;;;;;;;19.70;37.30;;;;;;505571;235;2123;-44
2021/04/20 02:10:04;;;;;;;;;;;19.80;37.00;;;;;;505494;235;1039;-44
2021/04/20 02:12:05;;;;;;;;;;;19.90;36.90;;;;;;505530;235;1147;-44
2021/04/20 02:14:06;;;;;;;;;;;19.90;36.80;;;;;;505390;236;1194;-44
2021/04/20 02:16:08;;;;;;;;;;;20.00;36.70;;;;;;505648;235;1061;-44
2021/04/20 02:18:09;;;;;;;;;;;20.00;36.50;;;;;;505584;235;1063;-44
2021/04/20 02:20:10;;;;;;;;;;;20.10;36.50;;;;;;505361;235;1271;-45
2021/04/20 02:22:11;;;;;;;;;;;20.10;36.30;;;;;;505272;236;1220;-44
2021/04/20 02:24:13;;;;;;;;;;;20.20;36.30;;;;;;505480;235;1041;-45
2021/04/20 02:26:14;;;;;;;;;;;20.20;36.20;;;;;;505366;235;1068;-44
2021/04/20 02:28:15;;;;;;;;;;;20.20;36.20;;;;;;505296;236;2185;-44
2021/04/20 02:30:17;;;;;;;;;;;20.30;36.10;;;;;;505736;235;1117;-45
2021/04/20 02:32:18;;;;;;;;;;;20.40;36.10;;;;;;505386;235;1117;-44
2021/04/20 02:34:19;;;;;;;;;;;20.40;36.00;;;;;;505412;235;1104;-45
2021/04/20 02:36:20;;;;;;;;;;;20.40;36.00;;;;;;505812;234;1293;-44
2021/04/20 02:38:22;;;;;;;;;;;20.40;35.90;;;;;;505756;235;1233;-44
2021/04/20 02:40:23;;;;;;;;;;;20.40;35.90;;;;;;505442;235;1191;-44
2021/04/20 02:42:24;;;;;;;;;;;20.50;35.90;;;;;;505374;236;1400;-44
2021/04/20 02:44:26;;;;;;;;;;;20.50;35.90;;;;;;505381;235;1180;-44
2021/04/20 02:46:27;;;;;;;;;;;20.50;35.80;;;;;;505335;235;1173;-44
2021/04/20 02:48:28;;;;;;;;;;;20.60;35.80;;;;;;505754;234;2188;-45
2021/04/20 02:50:29;;;;;;;;;;;20.60;35.80;;;;;;505604;234;1024;-45
2021/04/20 02:52:31;;;;;;;;;;;20.60;35.80;;;;;;505379;235;1132;-44
2021/04/20 02:54:32;;;;;;;;;;;20.60;35.70;;;;;;505466;235;1068;-44
2021/04/20 02:56:33;;;;;;;;;;;20.60;35.70;;;;;;505330;235;1150;-44
2021/04/20 02:58:35;;;;;;;;;;;20.70;35.70;;;;;;505407;236;1173;-44
2021/04/20 03:00:36;;;;;;;;;;;20.70;35.70;;;;;;505661;235;1067;-44
2021/04/20 03:02:37;;;;;;;;;;;20.70;35.60;;;;;;505427;236;1075;-45
2021/04/20 03:04:38;;;;;;;;;;;20.70;35.60;;;;;;505698;236;1028;-44
2021/04/20 03:06:40;;;;;;;;;;;20.70;35.60;;;;;;505677;235;1055;-45
2021/04/20 03:08:41;;;;;;;;;;;20.70;35.50;;;;;;505926;235;2137;-45
2021/04/20 03:10:42;;;;;;;;;;;20.70;35.50;;;;;;505691;234;1143;-45
2021/04/20 03:12:44;;;;;;;;;;;20.70;35.50;;;;;;505672;235;1288;-44
2021/04/20 03:14:45;;;;;;;;;;;20.80;35.50;;;;;;505365;234;1036;-45
2021/04/20 03:16:46;;;;;;;;;;;20.80;35.50;;;;;;505317;235;1185;-45
2021/04/20 03:18:48;;;;;;;;;;;20.80;35.40;;;;;;505689;235;1046;-45
2021/04/20 03:20:49;;;;;;;;;;;20.80;35.40;;;;;;505308;236;1223;-44
2021/04/20 03:22:50;;;;;;;;;;;20.90;35.50;;;;;;505359;234;1104;-44
2021/04/20 03:24:51;;;;;;;;;;;20.80;35.40;;;;;;505776;235;1051;-44
2021/04/20 03:26:53;;;;;;;;;;;20.90;35.50;;;;;;505317;235;1269;-45
2021/04/20 03:28:54;;;;;;;;;;;20.80;35.40;;;;;;505429;235;2166;-45
2021/04/20 03:30:55;;;;;;;;;;;20.90;35.40;;;;;;505683;235;1239;-44
2021/04/20 03:32:57;;;;;;;;;;;20.90;35.40;;;;;;505383;235;1336;-45
2021/04/20 03:34:58;;;;;;;;;;;20.90;35.40;;;;;;505538;235;1034;-45
2021/04/20 03:36:59;;;;;;;;;;;20.90;35.30;;;;;;505170;235;1568;-45
2021/04/20 03:39:00;;;;;;;;;;;21.00;35.40;;;;;;505392;234;1068;-45
2021/04/20 03:41:02;;;;;;;;;;;20.90;35.30;;;;;;505508;235;1357;-44
2021/04/20 03:43:03;;;;;;;;;;;21.00;35.30;;;;;;505250;235;1179;-45
2021/04/20 03:45:04;;;;;;;;;;;21.00;35.30;;;;;;505321;235;1066;-45
2021/04/20 03:47:06;;;;;;;;;;;21.00;35.30;;;;;;505324;235;1348;-45
2021/04/20 03:49:07;;;;;;;;;;;21.00;35.20;;;;;;505296;235;2138;-44
2021/04/20 03:51:08;;;;;;;;;;;21.00;35.20;;;;;;505763;235;1080;-45
2021/04/20 03:53:09;;;;;;;;;;;21.00;35.20;;;;;;505272;235;1074;-45
2021/04/20 03:55:11;;;;;;;;;;;21.10;35.20;;;;;;505275;235;1082;-45
2021/04/20 03:57:12;;;;;;;;;;;21.10;35.20;;;;;;505690;235;1063;-45
2021/04/20 03:59:13;;;;;;;;;;;21.10;35.20;;;;;;505396;235;1175;-44
2021/04/20 04:01:14;;;;;;;;;;;21.10;35.20;;;;;;505532;235;1007;-44
2021/04/20 04:03:16;;;;;;;;;;;21.10;35.10;;;;;;505838;235;1094;-44
2021/04/20 04:05:17;;;;;;;;;;;21.10;35.20;;;;;;505469;235;1056;-45
2021/04/20 04:07:18;;;;;;;;;;;21.10;35.10;;;;;;505303;235;1009;-45
2021/04/20 04:09:20;;;;;;;;;;;21.10;35.20;;;;;;505654;235;2129;-45
2021/04/20 04:11:21;;;;;;;;;;;21.10;35.20;;;;;;505562;235;1051;-45
2021/04/20 04:13:22;;;;;;;;;;;21.10;35.10;;;;;;505308;235;1201;-44
2021/04/20 04:15:23;;;;;;;;;;;21.10;35.10;;;;;;505523;235;1056;-44
2021/04/20 04:17:25;;;;;;;;;;;21.20;35.20;;;;;;505292;235;1093;-44
2021/04/20 04:19:26;;;;;;;;;;;21.10;35.10;;;;;;505310;236;1077;-45
2021/04/20 04:21:27;;;;;;;;;;;21.20;35.10;;;;;;505225;235;1056;-45
2021/04/20 04:23:28;;;;;;;;;;;21.20;35.10;;;;;;505331;235;1059;-44
2021/04/20 04:25:30;;;;;;;;;;;21.20;35.10;;;;;;505743;235;1043;-45
2021/04/20 04:27:31;;;;;;;;;;;21.20;35.10;;;;;;505232;235;1080;-45
2021/04/20 04:29:32;;;;;;;;;;;21.20;35.10;;;;;;505368;235;2201;-44
2021/04/20 04:31:34;;;;;;;;;;;21.20;35.10;;;;;;505472;235;1093;-45
2021/04/20 04:33:35;;;;;;;;;;;21.20;35.10;;;;;;505694;235;1146;-45
2021/04/20 04:35:36;;;;;;;;;;;21.20;35.10;;;;;;505300;235;1043;-45
2021/04/20 04:37:37;;;;;;;;;;;21.20;35.00;;;;;;505486;235;1054;-45
2021/04/20 04:39:39;;;;;;;;;;;21.20;35.10;;;;;;505616;234;1334;-45
2021/04/20 04:41:40;;;;;;;;;;;21.20;35.10;;;;;;505445;235;1171;-45
2021/04/20 04:43:42;;;;;;;;;;;21.20;35.10;;;;;;505158;235;1187;-45
2021/04/20 04:45:43;;;;;;;;;;;21.20;35.10;;;;;;505248;235;1163;-44
2021/04/20 04:47:44;;;;;;;;;;;21.20;35.10;;;;;;505280;235;1050;-45
2021/04/20 04:49:46;;;;;;;;;;;21.30;35.10;;;;;;505068;234;2200;-45
2021/04/20 04:51:47;;;;;;;;;;;21.30;35.10;;;;;;505098;235;1120;-45
2021/04/20 04:53:48;;;;;;;;;;;21.30;35.00;;;;;;505181;235;1080;-45
2021/04/20 04:55:49;;;;;;;;;;;21.30;35.00;;;;;;505147;235;1092;-45
2021/04/20 04:57:51;;;;;;;;;;;21.30;35.10;;;;;;505326;235;1050;-45
2021/04/20 04:59:52;;;;;;;;;;;21.30;35.00;;;;;;505033;235;1191;-44
2021/04/20 05:01:53;;;;;;;;;;;21.40;35.10;;;;;;505244;236;1043;-45
2021/04/20 05:03:54;;;;;;;;;;;21.30;35.00;;;;;;505363;234;1071;-45
2021/04/20 05:05:56;;;;;;;;;;;21.30;35.00;;;;;;505062;235;1110;-44
2021/04/20 05:07:57;;;;;;;;;;;21.30;35.00;;;;;;505292;235;1088;-45
2021/04/20 05:09:58;;;;;;;;;;;21.30;35.00;;;;;;505116;235;2126;-45
2021/04/20 05:12:00;;;;;;;;;;;21.30;35.00;;;;;;505092;235;1124;-45
2021/04/20 05:14:01;;;;;;;;;;;21.30;35.00;;;;;;505013;234;1147;-45
2021/04/20 05:16:02;;;;;;;;;;;21.40;35.10;;;;;;504996;235;1059;-44
2021/04/20 05:18:03;;;;;;;;;;;21.40;35.00;;;;;;505128;235;1154;-45
2021/04/20 05:20:05;;;;;;;;;;;21.40;35.00;;;;;;505071;235;1069;-45
2021/04/20 05:22:06;;;;;;;;;;;21.40;35.10;;;;;;505253;235;1135;-45
2021/04/20 05:24:07;;;;;;;;;;;21.40;35.10;;;;;;505163;235;1188;-45
2021/04/20 05:26:09;;;;;;;;;;;21.40;35.00;;;;;;505070;235;1249;-45
2021/04/20 05:28:10;;;;;;;;;;;21.40;35.00;;;;;;504988;235;1053;-45
2021/04/20 05:30:11;;;;;;;;;;;21.40;35.10;;;;;;504983;235;2200;-45
2021/04/20 05:32:12;;;;;;;;;;;21.40;35.10;;;;;;505025;234;1129;-45
2021/04/20 05:34:15;;;;;;;;;;;21.40;35.00;;;;;;505022;234;1146;-45
2021/04/20 05:36:16;;;;;;;;;;;21.40;35.10;;;;;;505099;235;1061;-45
2021/04/20 05:38:17;;;;;;;;;;;21.40;35.00;;;;;;504991;235;1215;-45
2021/04/20 05:40:19;;;;;;;;;;;21.40;35.00;;;;;;504962;234;1153;-44
2021/04/20 05:42:20;;;;;;;;;;;21.40;35.00;;;;;;504864;235;1109;-44
2021/04/20 05:44:21;;;;;;;;;;;21.40;35.00;;;;;;504965;235;1185;-45
2021/04/20 05:46:22;;;;;;;;;;;21.40;35.10;;;;;;505190;235;1174;-45
2021/04/20 05:48:24;;;;;;;;;;;21.40;35.10;;;;;;504830;235;1048;-44
2021/04/20 05:50:25;;;;;;;;;;;21.50;35.10;;;;;;504856;235;2161;-44
2021/04/20 05:52:26;;;;;;;;;;;21.40;35.00;;;;;;504875;235;1088;-45
2021/04/20 05:54:28;;;;;;;;;;;21.40;35.10;;;;;;505373;235;1261;-45
2021/04/20 05:56:29;;;;;;;;;;;21.40;35.10;;;;;;504982;235;1513;-45
2021/04/20 05:58:31;;;;;;;;;;;21.40;35.00;;;;;;505046;235;1104;-44
2021/04/20 06:00:32;;;;;;;;;;;21.40;35.10;;;;;;505014;236;1154;-45
2021/04/20 06:02:33;;;;;;;;;;;21.40;35.10;;;;;;504872;235;1090;-44
2021/04/20 06:04:34;;;;;;;;;;;21.50;35.10;;;;;;505019;235;1069;-45
2021/04/20 06:06:36;;;;;;;;;;;21.40;35.00;;;;;;504973;235;1080;-45
2021/04/20 06:08:37;;;;;;;;;;;21.50;35.00;;;;;;504820;235;2135;-44
2021/04/20 06:10:39;;;;;;;;;;;21.50;35.00;;;;;;504944;235;2318;-44
2021/04/20 06:12:40;;;;;;;;;;;21.50;34.90;;;;;;504844;235;1137;-45
2021/04/20 06:14:41;;;;;;;;;;;21.50;34.90;;;;;;504839;235;1178;-45
2021/04/20 06:16:42;;;;;;;;;;;21.50;35.00;;;;;;504748;234;1147;-45
2021/04/20 06:18:44;;;;;;;;;;;21.50;35.00;;;;;;504681;235;1123;-45
2021/04/20 06:20:45;;;;;;;;;;;21.50;35.00;;;;;;504668;235;1248;-45
2021/04/20 06:22:46;;;;;;;;;;;21.50;35.00;;;;;;504708;235;1103;-45
2021/04/20 06:24:48;;;;;;;;;;;21.50;35.00;;;;;;505088;235;1050;-44
2021/04/20 06:26:49;;;;;;;;;;;21.60;35.00;;;;;;504932;235;1086;-45
2021/04/20 06:28:50;;;;;;;;;;;21.60;35.00;;;;;;504835;234;2201;-45
2021/04/20 06:30:51;;;;;;;;;;;21.60;35.00;;;;;;504862;235;1220;-45
2021/04/20 06:32:53;;;;;;;;;;;21.60;35.00;;;;;;504927;235;1143;-45
2021/04/20 06:34:54;;;;;;;;;;;21.60;35.00;;;;;;504734;234;1098;-44
2021/04/20 06:36:55;;;;;;;;;;;21.60;35.00;;;;;;504818;235;1111;-45
2021/04/20 06:38:57;;;;;;;;;;;21.60;35.00;;;;;;504684;236;1246;-45
2021/04/20 06:40:58;;;;;;;;;;;21.60;34.90;;;;;;504639;235;1706;-45
2021/04/20 06:43:00;;;;;;;;;;;21.60;35.00;;;;;;504772;235;1168;-45
2021/04/20 06:45:01;;;;;;;;;;;21.60;35.00;;;;;;504746;235;1090;-45
2021/04/20 06:47:02;;;;;;;;;;;21.60;35.00;;;;;;504819;236;1305;-45
2021/04/20 06:49:03;;;;;;;;;;;21.60;35.00;;;;;;505001;235;2138;-45
2021/04/20 06:51:05;;;;;;;;;;;21.60;35.00;;;;;;504840;235;1353;-45
2021/04/20 06:53:06;;;;;;;;;;;21.60;35.00;;;;;;504914;235;1077;-45
2021/04/20 06:55:08;;;;;;;;;;;21.60;35.00;;;;;;504627;235;1224;-45
2021/04/20 06:57:09;;;;;;;;;;;21.60;35.00;;;;;;504682;235;1501;-45
2021/04/20 06:59:10;;;;;;;;;;;21.60;35.00;;;;;;504597;235;1129;-45
2021/04/20 07:01:11;;;;;;;;;;;21.60;35.00;;;;;;504583;236;1555;-45
2021/04/20 07:03:13;;;;;;;;;;;21.60;35.00;;;;;;504840;235;1205;-44
2021/04/20 07:05:14;;;;;;;;;;;21.60;35.00;;;;;;504606;235;1177;-44
2021/04/20 07:07:16;;;;;;;;;;;21.60;34.90;;;;;;504585;236;1407;-45
2021/04/20 07:09:17;;;;;;;;;;;21.60;35.00;;;;;;504648;234;2181;-45
2021/04/20 07:11:18;;;;;;;;;;;21.60;35.00;;;;;;504457;236;1118;-45
2021/04/20 07:13:20;;;;;;;;;;;21.70;35.00;;;;;;504588;235;1123;-45
2021/04/20 07:15:21;;;;;;;;;;;21.60;35.00;;;;;;504556;235;1085;-45
2021/04/20 07:17:24;;;;;;;;;;;21.60;35.00;;;;;;504566;235;1183;-45
2021/04/20 07:19:25;;;;;;;;;;;21.70;35.00;;;;;;504550;235;1072;-45
2021/04/20 07:21:27;;;;;;;;;;;21.70;35.00;;;;;;504560;235;1068;-44
2021/04/20 07:23:28;;;;;;;;;;;21.60;35.00;;;;;;504735;235;1084;-45
2021/04/20 07:25:29;;;;;;;;;;;21.80;34.80;;;;;;504914;235;1274;-44
2021/04/20 07:27:30;;;;;;;;;;;21.60;34.90;;;;;;504669;235;2009;-45
2021/04/20 07:29:32;;;;;;;;;;;21.20;35.60;;;;;;504694;236;2122;-44
2021/04/20 07:31:33;;;;;;;;;;;20.90;36.30;;;;;;504523;235;1148;-44
2021/04/20 07:33:34;;;;;;;;;;;20.60;36.80;;;;;;504479;235;1060;-44
2021/04/20 07:35:36;;;;;;;;;;;20.40;37.20;;;;;;504571;235;1373;-44
2021/04/20 07:37:37;;;;;;;;;;;20.20;37.60;;;;;;504940;235;1156;-44
2021/04/20 07:39:38;;;;;;;;;;;20.10;37.80;;;;;;504468;235;1111;-44
2021/04/20 07:41:40;;;;;;;;;;;20.10;37.90;;;;;;504567;235;1123;-44
2021/04/20 07:43:41;;;;;;;;;;;20.00;38.10;;;;;;504780;235;1094;-44
2021/04/20 07:45:42;;;;;;;;;;;20.00;38.10;;;;;;504660;235;1508;-44
2021/04/20 07:47:43;;;;;;;;;;;20.00;38.00;;;;;;504864;235;1420;-44
2021/04/20 07:49:45;;;;;;;;;;;19.90;38.10;;;;;;504601;235;2186;-44
2021/04/20 07:51:46;;;;;;;;;;;19.90;38.20;;;;;;504641;235;1312;-45
2021/04/20 07:53:48;;;;;;;;;;;19.90;38.10;;;;;;504383;235;1316;-44
2021/04/20 07:55:50;;;;;;;;;;;20.00;38.10;;;;;;504656;235;1121;-44
2021/04/20 07:57:51;;;;;;;;;;;19.90;38.10;;;;;;504709;236;2133;-44
2021/04/20 07:59:52;;;;;;;;;;;20.00;38.10;;;;;;504697;235;1090;-44
2021/04/20 08:01:53;;;;;;;;;;;19.90;38.10;;;;;;504556;232;1559;-44
2021/04/20 08:03:54;;;;;;;;;;;19.90;38.10;;;;;;504741;235;1049;-44
2021/04/20 08:05:56;;;;;;;;;;;19.90;38.00;;;;;;504646;235;1191;-44
2021/04/20 08:07:57;;;;;;;;;;;19.90;38.00;;;;;;504701;235;1134;-44
2021/04/20 08:09:58;;;;;;;;;;;20.00;37.90;;;;;;504723;235;2142;-44
2021/04/20 08:11:59;;;;;;;;;;;20.00;38.00;;;;;;504748;235;1179;-44
2021/04/20 08:14:01;;;;;;;;;;;19.90;38.00;;;;;;504622;235;1079;-44
2021/04/20 08:16:02;;;;;;;;;;;19.90;38.10;;;;;;504447;235;1316;-44
2021/04/20 08:18:03;;;;;;;;;;;19.80;38.20;;;;;;504840;234;1102;-44
2021/04/20 08:20:04;;;;;;;;;;;19.90;38.20;;;;;;505083;235;1639;-44
2021/04/20 08:22:06;;;;;;;;;;;19.70;38.40;;;;;;504555;235;1305;-44
2021/04/20 08:24:07;;;;;;;;;;;19.60;38.60;;;;;;505381;235;913;-44
2021/04/20 08:26:08;;;;;;;;;;;19.50;38.80;;;;;;505287;235;1060;-44
2021/04/20 08:28:09;;;;;;;;;;;19.40;39.00;;;;;;504737;236;1107;-44
2021/04/20 08:30:11;;;;;;;;;;;19.40;39.20;;;;;;504328;235;2165;-44
2021/04/20 08:32:12;;;;;;;;;;;19.30;39.30;;;;;;504584;235;1708;-44
2021/04/20 08:34:13;;;;;;;;;;;19.20;39.40;;;;;;504615;235;1099;-44
2021/04/20 08:36:15;;;;;;;;;;;19.20;39.50;;;;;;504548;235;1165;-44
2021/04/20 08:38:16;;;;;;;;;;;19.10;39.70;;;;;;504650;234;1156;-44
2021/04/20 08:40:17;;;;;;;;;;;19.00;39.80;;;;;;504428;235;1220;-44
2021/04/20 08:42:18;;;;;;;;;;;18.90;39.90;;;;;;504292;235;1447;-44
2021/04/20 08:44:20;;;;;;;;;;;18.90;39.90;;;;;;504694;235;1084;-44
2021/04/20 08:46:21;;;;;;;;;;;18.90;40.00;;;;;;504576;235;1382;-44
2021/04/20 08:48:22;;;;;;;;;;;18.90;40.10;;;;;;504851;235;1089;-44
2021/04/20 08:50:24;;;;;;;;;;;18.80;40.20;;;;;;504649;235;2185;-44
2021/04/20 08:52:25;;;;;;;;;;;18.80;40.30;;;;;;504706;235;1230;-44
2021/04/20 08:54:26;;;;;;;;;;;18.80;40.30;;;;;;504732;235;1108;-44
2021/04/20 08:56:29;;;;;;;;;;;18.80;40.20;;;;;;504715;235;1579;-44
2021/04/20 08:58:29;;;;;;;;;;;18.80;40.20;;;;;;504603;236;2300;-44
2021/04/20 09:00:31;;;;;;;;;;;18.70;40.20;;;;;;504640;235;1157;-44
2021/04/20 09:02:31;;;;;;;;;;;18.70;40.30;;;;;;504677;235;1175;-44
2021/04/20 09:04:33;;;;;;;;;;;18.60;40.30;;;;;;504872;235;1717;-44
2021/04/20 09:06:34;;;;;;;;;;;18.60;40.40;;;;;;504527;235;1071;-44
2021/04/20 09:08:35;;;;;;;;;;;18.60;40.50;;;;;;504731;235;1102;-44
2021/04/20 09:10:36;;;;;;;;;;;18.50;40.70;;;;;;504581;234;2166;-44
2021/04/20 09:12:38;;;;;;;;;;;18.40;40.70;;;;;;504557;235;1091;-44
2021/04/20 09:14:39;;;;;;;;;;;18.40;40.80;;;;;;504877;235;1103;-44
2021/04/20 09:16:40;;;;;;;;;;;18.40;40.90;;;;;;504787;235;1152;-44
2021/04/20 09:18:42;;;;;;;;;;;18.30;40.90;;;;;;503774;235;1175;-44
2021/04/20 09:20:43;;;;;;;;;;;18.30;40.90;;;;;;504441;235;1530;-46
2021/04/20 09:22:48;;;;;;;;;;;18.30;41.00;;;;;;504663;235;1139;-44
2021/04/20 09:24:45;;;;;;;;;;;18.30;41.00;;;;;;504502;236;1997;-44
2021/04/20 09:26:47;;;;;;;;;;;18.20;41.10;;;;;;503895;234;1115;-44
2021/04/20 09:28:48;;;;;;;;;;;18.20;41.10;;;;;;504707;235;1129;-44
2021/04/20 09:30:49;;;;;;;;;;;18.20;41.20;;;;;;504397;235;2177;-44
2021/04/20 09:32:51;;;;;;;;;;;18.20;41.20;;;;;;504614;235;1314;-44
2021/04/20 09:34:53;;;;;;;;;;;18.20;41.10;;;;;;504767;236;1055;-44
2021/04/20 09:36:53;;;;;;;;;;;18.20;41.00;;;;;;504560;235;2307;-44
2021/04/20 09:38:54;;;;;;;;;;;18.30;41.00;;;;;;504739;236;1082;-44
2021/04/20 09:40:56;;;;;;;;;;;18.30;41.00;;;;;;504444;235;1483;-44
2021/04/20 09:42:57;;;;;;;;;;;18.30;41.00;;;;;;504756;235;1085;-46
2021/04/20 09:44:59;;;;;;;;;;;18.20;40.90;;;;;;504803;235;1066;-46
2021/04/20 09:47:00;;;;;;;;;;;18.20;41.00;;;;;;504764;236;1800;-44
2021/04/20 09:49:01;;;;;;;;;;;18.20;41.00;;;;;;504901;235;1157;-44
2021/04/20 09:51:02;;;;;;;;;;;18.20;41.00;;;;;;504633;235;2229;-44
2021/04/20 09:53:03;;;;;;;;;;;18.20;41.00;;;;;;504701;235;1131;-44
2021/04/20 09:55:06;;;;;;;;;;;18.20;40.90;;;;;;504732;235;1097;-44
2021/04/20 09:57:06;;;;;;;;;;;18.20;40.90;;;;;;504735;235;2090;-44
2021/04/20 09:59:07;;;;;;;;;;;18.20;40.90;;;;;;504638;236;1226;-44
2021/04/20 10:01:08;;;;;;;;;;;18.20;41.00;;;;;;504611;235;1198;-46
2021/04/20 10:03:11;;;;;;;;;;;18.10;41.00;;;;;;504570;232;1284;-44
2021/04/20 10:05:11;;;;;;;;;;;18.10;41.00;;;;;;504840;235;1445;-44
2021/04/20 10:07:13;;;;;;;;;;;18.20;41.10;;;;;;504734;235;1062;-44
2021/04/20 10:09:14;;;;;;;;;;;18.20;41.00;;;;;;504705;235;1089;-44
2021/04/20 10:11:15;;;;;;;;;;;18.20;41.00;;;;;;504290;235;2173;-44
2021/04/20 10:13:17;;;;;;;;;;;18.20;40.90;;;;;;504488;235;1080;-44
2021/04/20 10:15:18;;;;;;;;;;;18.20;40.90;;;;;;504533;235;1094;-44
2021/04/20 10:17:19;;;;;;;;;;;18.20;40.90;;;;;;504563;235;1059;-44
2021/04/20 10:19:21;;;;;;;;;;;18.20;40.90;;;;;;504494;236;1191;-44
2021/04/20 10:21:22;;;;;;;;;;;18.10;41.00;;;;;;504316;235;1037;-44
2021/04/20 10:23:24;;;;;;;;;;;18.10;40.90;;;;;;504377;235;1252;-44
2021/04/20 10:25:25;;;;;;;;;;;18.20;40.90;;;;;;504451;235;1184;-44
2021/04/20 10:27:26;;;;;;;;;;;18.10;40.90;;;;;;504300;235;1203;-44
2021/04/20 10:29:28;;;;;;;;;;;18.10;40.90;;;;;;504650;235;1105;-44
2021/04/20 10:31:29;;;;;;;;;;;18.10;40.90;;;;;;504839;234;2185;-44
2021/04/20 10:33:30;;;;;;;;;;;18.10;41.00;;;;;;504487;235;1281;-44
2021/04/20 10:35:32;;;;;;;;;;;18.10;41.00;;;;;;504630;235;1143;-44
2021/04/20 10:37:34;;;;;;;;;;;18.10;41.00;;;;;;504609;235;1161;-44
2021/04/20 10:39:35;;;;;;;;;;;18.10;41.00;;;;;;504504;235;1037;-44
2021/04/20 10:41:38;;;;;;;;;;;18.10;41.00;;;;;;504546;235;1064;-44
2021/04/20 10:43:38;;;;;;;;;;;18.10;41.00;;;;;;504356;236;1898;-44
2021/04/20 10:45:39;;;;;;;;;;;18.10;40.90;;;;;;504476;235;1060;-44
2021/04/20 10:47:41;;;;;;;;;;;18.10;40.90;;;;;;504442;234;1115;-44
2021/04/20 10:49:42;;;;;;;;;;;18.10;40.80;;;;;;504469;235;1181;-44
2021/04/20 10:51:43;;;;;;;;;;;18.30;40.50;;;;;;504279;235;2178;-45
2021/04/20 10:53:44;;;;;;;;;;;18.70;39.70;;;;;;504593;235;1074;-44
2021/04/20 10:55:46;;;;;;;;;;;19.00;39.00;;;;;;504649;235;1039;-44
2021/04/20 10:57:47;;;;;;;;;;;19.20;38.50;;;;;;504549;235;1091;-44
2021/04/20 10:59:50;;;;;;;;;;;19.40;38.10;;;;;;504713;235;1080;-44
2021/04/20 11:01:50;;;;;;;;;;;19.50;37.80;;;;;;504510;235;2327;-44
2021/04/20 11:03:51;;;;;;;;;;;19.70;37.70;;;;;;504466;231;1345;-44
2021/04/20 11:05:53;;;;;;;;;;;19.80;37.50;;;;;;504444;235;1253;-44
2021/04/20 11:07:54;;;;;;;;;;;19.90;37.40;;;;;;504677;235;1108;-45
2021/04/20 11:09:55;;;;;;;;;;;19.90;37.20;;;;;;504709;235;1157;-45
2021/04/20 11:11:57;;;;;;;;;;;20.00;37.10;;;;;;504485;235;2173;-44
2021/04/20 11:13:58;;;;;;;;;;;20.00;37.00;;;;;;504631;235;1132;-44
2021/04/20 11:15:59;;;;;;;;;;;20.10;36.90;;;;;;504627;235;1182;-45
2021/04/20 11:18:01;;;;;;;;;;;20.10;36.80;;;;;;504675;236;1399;-44
2021/04/20 11:20:02;;;;;;;;;;;20.20;36.70;;;;;;504474;235;1167;-44
2021/04/20 11:22:03;;;;;;;;;;;20.20;36.60;;;;;;504615;235;1163;-45
2021/04/20 11:24:05;;;;;;;;;;;20.30;36.60;;;;;;504296;235;1053;-45
2021/04/20 11:26:06;;;;;;;;;;;20.30;36.50;;;;;;504506;235;1104;-44
2021/04/20 11:28:08;;;;;;;;;;;20.30;36.50;;;;;;504752;235;1082;-45
2021/04/20 11:30:09;;;;;;;;;;;20.40;36.40;;;;;;504395;236;1069;-44
2021/04/20 11:32:10;;;;;;;;;;;20.40;36.30;;;;;;504450;235;2177;-44
2021/04/20 11:34:11;;;;;;;;;;;20.40;36.30;;;;;;504685;232;1308;-44
2021/04/20 11:36:13;;;;;;;;;;;20.40;36.20;;;;;;504466;235;1515;-45
2021/04/20 11:38:14;;;;;;;;;;;20.50;36.20;;;;;;505473;235;990;-45
2021/04/20 11:40:16;;;;;;;;;;;20.50;36.20;;;;;;504572;235;1097;-44
2021/04/20 11:42:17;;;;;;;;;;;20.50;36.10;;;;;;504710;236;1435;-45
2021/04/20 11:44:18;;;;;;;;;;;20.60;36.10;;;;;;504537;235;1055;-45
2021/04/20 11:46:21;;;;;;;;;;;20.60;36.10;;;;;;504372;235;1233;-45
2021/04/20 11:48:21;;;;;;;;;;;20.60;36.10;;;;;;504421;235;1883;-44
2021/04/20 11:50:22;;;;;;;;;;;20.60;36.00;;;;;;504473;235;1168;-44
2021/04/20 11:52:24;;;;;;;;;;;20.60;36.00;;;;;;504469;235;2103;-44
2021/04/20 11:54:25;;;;;;;;;;;20.70;36.00;;;;;;504630;235;1285;-45
2021/04/20 11:56:26;;;;;;;;;;;20.70;35.90;;;;;;504454;235;1159;-44